Time;durP1;ratioP1;P1;durP2;ratioP2;P2;SDS_P1;SDS_P2;PMS_P1;PMS_P2;Temp;Humidity;BMP_temperature;BMP_pressure;BME280_temperature;BME280_humidity;BME280_pressure;Samples;Min_cycle;Max_cycle;Signal;HPM_P1;HPM_P2
2022/10/27 00:00:32;;;;;;;8.75;5.47;;;;;;;3.63;58.06;100405.34;6071737;23;20045;-80
2022/10/27 00:02:58;;;;;;;11.02;5.78;;;;;;;3.31;58.46;100359.81;6072002;23;20342;-81
2022/10/27 00:05:25;;;;;;;8.95;5.40;;;;;;;3.46;57.84;100410.88;6085811;23;20030;-78
2022/10/27 00:07:51;;;;;;;10.02;5.13;;;;;;;3.37;58.90;100400.28;6087042;23;20033;-81
2022/10/27 00:10:17;;;;;;;10.70;6.00;;;;;;;3.38;58.22;100390.88;6077848;23;20014;-81
2022/10/27 00:12:43;;;;;;;9.95;5.53;;;;;;;3.27;58.25;100380.28;6045316;23;20074;-81
2022/10/27 00:15:11;;;;;;;9.75;5.70;;;;;;;3.53;58.34;100400.75;5998873;23;20042;-81
2022/10/27 00:17:40;;;;;;;8.48;5.60;;;;;;;3.58;58.35;100402.63;5998579;23;20023;-82
2022/10/27 00:20:09;;;;;;;11.57;5.93;;;;;;;3.17;57.60;100356.84;6070094;23;20101;-81
2022/10/27 00:22:35;;;;;;;10.65;5.40;;;;;;;3.39;57.73;100383.19;6069739;23;20101;-82
2022/10/27 00:25:02;;;;;;;10.50;5.57;;;;;;;3.38;57.35;100386.59;6021307;23;20070;-79
2022/10/27 00:27:29;;;;;;;12.98;5.68;;;;;;;3.27;58.17;100381.13;6023089;23;20027;-81
2022/10/27 00:29:55;;;;;;;11.85;5.85;;;;;;;3.01;57.09;100332.34;6045347;23;20023;-82
2022/10/27 00:32:22;;;;;;;9.93;5.80;;;;;;;3.23;58.07;100381.00;6021543;23;20030;-82
2022/10/27 00:34:48;;;;;;;9.25;6.00;;;;;;;2.91;57.77;100334.59;6069996;23;20038;-80
2022/10/27 00:37:14;;;;;;;9.60;5.97;;;;;;;3.29;58.83;100392.34;6044789;23;20155;-82
2022/10/27 00:39:40;;;;;;;10.30;5.45;;;;;;;3.30;58.84;100367.50;6021314;23;20098;-81
2022/10/27 00:42:08;;;;;;;7.63;5.32;;;;;;;3.59;58.23;100377.75;6070045;23;20018;-84
2022/10/27 00:44:42;;;;;;;7.43;5.10;;;;;;;3.85;58.42;100396.53;6021619;23;20015;-80
2022/10/27 00:47:33;;;;;;;7.55;5.10;;;;;;;3.93;57.99;100396.75;6051237;23;20094;-79
2022/10/27 00:50:05;;;;;;;9.68;5.57;;;;;;;3.62;56.52;100388.16;6047001;23;20361;-81
2022/10/27 00:52:31;;;;;;;10.48;5.45;;;;;;;3.57;57.56;100403.47;6020457;23;20076;-81
2022/10/27 00:55:01;;;;;;;9.65;5.60;;;;;;;3.35;58.36;100388.22;6069305;23;20023;-81
2022/10/27 00:57:32;;;;;;;10.68;5.95;;;;;;;3.54;58.44;100399.91;6045155;23;20015;-82
2022/10/27 01:00:00;;;;;;;12.45;5.88;;;;;;;3.34;57.02;100371.03;6020457;23;20029;-82
2022/10/27 01:02:26;;;;;;;11.95;5.25;;;;;;;3.43;58.26;100387.63;6046373;23;20019;-80
2022/10/27 01:04:59;;;;;;;10.93;5.93;;;;;;;3.57;58.57;100377.72;6070495;23;20015;-81
2022/10/27 01:07:26;;;;;;;8.98;6.38;;;;;;;3.66;57.77;100376.22;6049340;23;20030;-79
2022/10/27 01:09:52;;;;;;;11.40;5.80;;;;;;;3.58;58.14;100374.31;6051233;23;20058;-80
2022/10/27 01:12:18;;;;;;;8.90;5.57;;;;;;;3.68;58.09;100384.88;6054699;23;20018;-80
2022/10/27 01:14:44;;;;;;;11.88;5.60;;;;;;;3.53;57.97;100337.28;6063942;23;20066;-83
2022/10/27 01:17:27;;;;;;;6.63;5.18;;;;;;;3.73;58.18;100378.16;6031468;23;20019;-81
2022/10/27 01:20:12;;;;;;;9.40;5.55;;;;;;;3.94;58.16;100389.88;6069599;23;20338;-80
2022/10/27 01:22:41;;;;;;;11.90;5.28;;;;;;;4.08;58.11;100386.00;6048083;23;20029;-80
2022/10/27 01:25:20;;;;;;;8.15;5.90;;;;;;;4.12;58.12;100377.50;6069574;23;20465;-79
2022/10/27 01:27:49;;;;;;;7.38;5.25;;;;;;;4.01;57.63;100386.66;6043322;23;20547;-80
2022/10/27 01:30:20;;;;;;;8.90;5.53;;;;;;;3.60;57.41;100358.91;6043662;23;20022;-81
2022/10/27 01:33:17;;;;;;;9.15;5.05;;;;;;;3.76;58.09;100385.97;6019908;23;20369;-82
2022/10/27 01:35:56;;;;;;;9.48;5.45;;;;;;;3.54;57.02;100390.50;6042963;23;20025;-79
2022/10/27 01:38:33;;;;;;;11.55;6.28;;;;;;;3.30;57.31;100381.22;6019624;23;20044;-81
2022/10/27 01:40:59;;;;;;;10.43;5.97;;;;;;;3.39;58.70;100384.91;6069214;23;20546;-81
2022/10/27 01:43:28;;;;;;;9.60;5.75;;;;;;;3.34;58.05;100383.91;6043699;23;20101;-80
2022/10/27 01:45:55;;;;;;;11.45;5.80;;;;;;;2.94;57.70;100338.16;6044305;23;20014;-81
2022/10/27 01:48:21;;;;;;;13.98;6.30;;;;;;;3.20;58.12;100391.19;6021139;23;20034;-82
2022/10/27 01:50:47;;;;;;;11.73;6.55;;;;;;;3.09;59.47;100350.56;6045687;23;20018;-80
2022/10/27 01:53:14;;;;;;;12.93;6.07;;;;;;;3.35;58.91;100376.22;6021948;23;20034;-82
2022/10/27 01:55:53;;;;;;;11.20;6.78;;;;;;;3.54;59.19;100376.75;6042789;23;20342;-80
2022/10/27 01:58:25;;;;;;;8.55;6.18;;;;;;;3.64;59.29;100375.34;6068384;23;20018;-80
2022/10/27 02:00:52;;;;;;;10.45;6.20;;;;;;;3.78;58.67;100371.44;5996357;23;20042;-82
2022/10/27 02:03:25;;;;;;;9.88;6.80;;;;;;;3.72;58.63;100348.97;6043658;23;20019;-81
2022/10/27 02:06:19;;;;;;;11.02;6.28;;;;;;;3.99;59.01;100371.13;6044908;23;20402;-81
2022/10/27 02:08:56;;;;;;;7.80;5.28;;;;;;;3.83;58.72;100361.25;6038163;23;20019;-80
2022/10/27 02:11:22;;;;;;;9.00;6.18;;;;;;;3.92;58.53;100364.97;6024816;23;20019;-81
2022/10/27 02:13:48;;;;;;;12.38;6.10;;;;;;;4.04;57.86;100371.28;6065054;23;20019;-80
2022/10/27 02:16:24;;;;;;;10.15;6.20;;;;;;;4.14;58.28;100368.09;6086659;23;20057;-81
2022/10/27 02:19:16;;;;;;;9.38;6.35;;;;;;;4.22;58.30;100370.88;6061587;23;20030;-81
2022/10/27 02:21:45;;;;;;;9.23;6.00;;;;;;;4.21;57.91;100370.03;6045305;23;20023;-80
2022/10/27 02:24:11;;;;;;;9.93;6.18;;;;;;;3.98;56.87;100360.81;6069166;23;20444;-79
2022/10/27 02:26:51;;;;;;;9.25;6.45;;;;;;;3.83;57.23;100357.00;6043530;23;20022;-82
2022/10/27 02:29:32;;;;;;;11.85;6.35;;;;;;;3.82;56.89;100364.66;6069184;23;20409;-81
2022/10/27 02:32:02;;;;;;;12.25;6.75;;;;;;;3.77;57.96;100360.25;6068428;23;20018;-83
2022/10/27 02:34:30;;;;;;;10.75;6.32;;;;;;;3.66;58.54;100335.94;6068360;23;20342;-81
2022/10/27 02:36:57;;;;;;;14.25;7.25;;;;;;;3.89;58.33;100371.75;6043161;23;20018;-79
2022/10/27 02:39:23;;;;;;;11.13;7.18;;;;;;;3.74;58.29;100331.88;6019265;23;20109;-81
2022/10/27 02:41:49;;;;;;;15.35;7.03;;;;;;;3.68;56.68;100348.81;6043307;23;20409;-81
2022/10/27 02:44:15;;;;;;;17.38;6.57;;;;;;;3.47;57.14;100331.97;6043857;23;20014;-79
2022/10/27 02:46:41;;;;;;;12.85;6.85;;;;;;;3.88;58.18;100373.44;6019280;23;20022;-80
2022/10/27 02:49:07;;;;;;;8.60;5.47;;;;;;;3.69;56.88;100372.06;6067651;23;20011;-81
2022/10/27 02:51:33;;;;;;;11.73;5.50;;;;;;;3.64;58.17;100371.06;6042935;23;20019;-80
2022/10/27 02:53:59;;;;;;;9.27;5.05;;;;;;;3.42;58.50;100334.41;6019924;23;20029;-79
2022/10/27 02:56:25;;;;;;;11.45;5.72;;;;;;;3.72;58.27;100368.69;5997232;23;20019;-79
2022/10/27 02:58:51;;;;;;;11.20;5.65;;;;;;;3.64;58.19;100357.31;6077232;23;20027;-80
2022/10/27 03:01:17;;;;;;;7.78;5.57;;;;;;;3.56;58.98;100336.50;6033277;23;20476;-80
2022/10/27 03:03:43;;;;;;;6.78;4.85;;;;;;;3.74;58.49;100372.19;6072073;23;20500;-80
2022/10/27 03:06:09;;;;;;;8.07;5.07;;;;;;;3.54;57.98;100339.03;6043688;23;20019;-82
2022/10/27 03:08:35;;;;;;;8.32;4.90;;;;;;;3.64;58.10;100372.75;6069396;23;20023;-81
2022/10/27 03:11:01;;;;;;;6.53;4.80;;;;;;;3.52;58.17;100371.56;5996494;23;20033;-80
2022/10/27 03:13:27;;;;;;;7.50;4.97;;;;;;;3.37;58.95;100361.69;6069121;23;20015;-79
2022/10/27 03:15:53;;;;;;;7.20;5.30;;;;;;;3.14;58.06;100332.72;6045331;23;20041;-79
2022/10/27 03:18:19;;;;;;;9.68;5.00;;;;;;;3.38;59.09;100363.44;6023520;23;20023;-80
2022/10/27 03:20:46;;;;;;;7.00;5.03;;;;;;;2.90;58.37;100296.84;6077596;23;20114;-79
2022/10/27 03:23:12;;;;;;;12.88;5.28;;;;;;;3.15;58.54;100294.19;6084528;23;20062;-81
2022/10/27 03:25:43;;;;;;;26.00;12.43;;;;;;;3.53;59.24;100349.28;6077375;23;20026;-80
2022/10/27 03:28:10;;;;;;;8.73;5.32;;;;;;;3.53;57.88;100362.16;6023100;23;20026;-81
2022/10/27 03:30:39;;;;;;;9.07;5.53;;;;;;;3.38;58.22;100360.00;6046445;23;20030;-80
2022/10/27 03:33:05;;;;;;;8.38;5.68;;;;;;;3.24;58.40;100323.59;6045032;23;20330;-80
2022/10/27 03:35:31;;;;;;;10.40;6.30;;;;;;;3.34;59.26;100346.16;6070313;23;20022;-80
2022/10/27 03:38:00;;;;;;;9.38;5.70;;;;;;;3.34;59.01;100338.44;6021115;23;20018;-80
2022/10/27 03:40:30;;;;;;;8.48;5.47;;;;;;;3.54;58.79;100356.16;6070216;23;20022;-82
2022/10/27 03:42:57;;;;;;;11.52;5.55;;;;;;;3.49;58.56;100330.31;6070341;23;20023;-81
2022/10/27 03:45:27;;;;;;;9.77;5.60;;;;;;;3.22;59.03;100326.09;6069818;23;20023;-80
2022/10/27 03:48:04;;;;;;;9.32;5.50;;;;;;;3.45;58.22;100364.50;6044244;23;20484;-82
2022/10/27 03:50:31;;;;;;;8.50;5.68;;;;;;;3.44;58.33;100362.75;6044332;23;20023;-81
2022/10/27 03:52:57;;;;;;;8.77;5.13;;;;;;;3.46;58.79;100366.22;6069043;23;20457;-79
2022/10/27 03:55:23;;;;;;;9.23;6.05;;;;;;;3.34;58.31;100353.88;6069542;23;20061;-80
2022/10/27 03:57:49;;;;;;;11.20;5.97;;;;;;;3.52;59.01;100366.41;6020679;23;20023;-81
2022/10/27 04:00:16;;;;;;;12.65;6.43;;;;;;;3.63;59.13;100359.00;6073101;23;20014;-79
2022/10/27 04:02:42;;;;;;;31.92;16.45;;;;;;;3.79;59.18;100354.28;6046286;23;20019;-79
2022/10/27 04:05:09;;;;;;;10.05;5.32;;;;;;;3.86;58.10;100379.38;6045259;23;20021;-80
2022/10/27 04:07:35;;;;;;;9.48;5.75;;;;;;;3.60;58.33;100372.69;6044101;23;20479;-79
2022/10/27 04:10:02;;;;;;;11.75;5.82;;;;;;;3.27;58.60;100336.53;6053088;23;20034;-82
2022/10/27 04:12:32;;;;;;;9.20;5.07;;;;;;;2.73;58.85;100274.09;6047329;23;20019;-80
2022/10/27 04:14:58;;;;;;;7.78;5.25;;;;;;;3.35;59.35;100378.78;6044720;23;20026;-77
2022/10/27 04:17:24;;;;;;;9.43;5.05;;;;;;;3.34;59.04;100377.03;6020848;23;20457;-81
2022/10/27 04:19:50;;;;;;;10.45;5.50;;;;;;;3.08;59.04;100332.53;6045206;23;20461;-81
2022/10/27 04:22:16;;;;;;;8.25;5.38;;;;;;;2.67;58.75;100261.03;6072764;23;20034;-81
2022/10/27 04:24:42;;;;;;;8.68;5.05;;;;;;;3.57;59.91;100382.88;6026818;23;20043;-81
2022/10/27 04:27:08;;;;;;;9.13;5.80;;;;;;;3.77;59.50;100386.00;6076007;23;20053;-78
2022/10/27 04:29:34;;;;;;;9.07;5.68;;;;;;;2.57;58.86;100182.78;6070745;23;20684;-81
2022/10/27 04:32:00;;;;;;;10.55;6.20;;;;;;;3.97;58.61;100388.28;6048158;23;20520;-79
2022/10/27 04:34:26;;;;;;;10.73;5.70;;;;;;;3.80;58.95;100331.16;6048032;23;20540;-80
2022/10/27 04:36:54;;;;;;;14.40;6.38;;;;;;;4.01;58.22;100359.19;6045514;23;20018;-82
2022/10/27 04:39:21;;;;;;;12.73;6.60;;;;;;;3.83;57.38;100376.72;6070033;23;20342;-81
2022/10/27 04:41:47;;;;;;;10.93;6.07;;;;;;;3.20;58.92;100304.59;6073459;23;20077;-81
2022/10/27 04:44:13;;;;;;;11.07;6.53;;;;;;;3.65;58.83;100397.66;6054190;23;20018;-81
2022/10/27 04:46:39;;;;;;;19.40;6.28;;;;;;;3.70;58.72;100385.78;6055271;23;20303;-82
2022/10/27 04:49:05;;;;;;;13.02;6.47;;;;;;;3.12;58.52;100303.53;6087453;23;20018;-79
2022/10/27 04:51:31;;;;;;;13.65;6.10;;;;;;;3.57;59.41;100370.00;6065944;23;20015;-84
2022/10/27 04:53:56;;;;;;;12.10;6.28;;;;;;;3.69;58.60;100372.06;6074391;23;20038;-80
2022/10/27 04:56:23;;;;;;;15.18;6.28;;;;;;;3.86;58.71;100400.84;6049769;23;20022;-85
2022/10/27 04:58:48;;;;;;;12.80;6.30;;;;;;;3.64;59.33;100371.06;6070568;23;20380;-81
2022/10/27 05:01:15;;;;;;;16.80;6.40;;;;;;;3.94;58.78;100377.00;6048124;23;20023;-82
2022/10/27 05:03:40;;;;;;;15.63;7.00;;;;;;;4.26;59.12;100402.78;6078468;23;20023;-83
2022/10/27 05:06:07;;;;;;;21.17;7.30;;;;;;;4.40;58.77;100408.28;6056583;23;20043;-81
2022/10/27 05:08:32;;;;;;;18.40;6.78;;;;;;;4.52;59.20;100408.59;6032532;23;20023;-82
2022/10/27 05:10:58;;;;;;;18.08;6.18;;;;;;;4.52;58.69;100398.28;6074627;23;20029;-82
2022/10/27 05:13:26;;;;;;;13.93;5.72;;;;;;;4.31;58.48;100363.41;6046645;23;20125;-81
2022/10/27 05:15:58;;;;;;;14.00;7.60;;;;;;;4.50;58.51;100376.75;6022242;23;20073;-83
2022/10/27 05:18:24;;;;;;;11.10;6.10;;;;;;;4.67;57.61;100390.06;6070894;23;20100;-85
2022/10/27 05:20:51;;;;;;;14.90;7.30;;;;;;;3.50;57.36;100207.66;6057038;23;20033;-84
2022/10/27 05:23:17;;;;;;;14.18;7.00;;;;;;;4.63;57.83;100398.56;6043604;23;20046;-83
2022/10/27 05:25:48;;;;;;;10.70;6.47;;;;;;;4.86;58.16;100403.41;6067940;23;20013;-84
2022/10/27 05:28:18;;;;;;;19.92;6.50;;;;;;;4.71;57.19;100409.06;6063268;23;20034;-83
2022/10/27 05:30:45;;;;;;;16.77;7.35;;;;;;;3.93;58.49;100280.88;6082276;23;20026;-83
2022/10/27 05:33:15;;;;;;;12.35;7.20;;;;;;;4.29;57.83;100334.16;6083970;23;20458;-82
2022/10/27 05:35:41;;;;;;;16.20;6.82;;;;;;;4.73;57.83;100400.53;6085223;23;20014;-80
2022/10/27 05:38:07;;;;;;;11.63;6.65;;;;;;;4.67;56.81;100405.53;6048338;23;20105;-81
2022/10/27 05:40:33;;;;;;;14.70;7.32;;;;;;;4.56;57.53;100402.69;6048069;23;20019;-80
2022/10/27 05:43:00;;;;;;;10.65;6.32;;;;;;;4.44;57.86;100387.78;6025578;23;20014;-84
2022/10/27 05:45:40;;;;;;;;;;;;;;;;;;;;;
2022/10/27 05:48:10;;;;;;;12.88;7.20;;;;;;;3.98;57.57;100327.34;6075055;23;20018;-79
2022/10/27 05:50:36;;;;;;;16.95;7.10;;;;;;;4.49;58.40;100387.88;6050682;23;20023;-79
2022/10/27 05:53:02;;;;;;;14.32;7.10;;;;;;;4.62;58.94;100396.81;6051057;23;20436;-82
2022/10/27 05:55:28;;;;;;;16.33;8.43;;;;;;;4.85;58.33;100417.13;6074122;23;20544;-80
2022/10/27 05:57:57;;;;;;;13.02;6.70;;;;;;;4.95;58.65;100411.38;6023245;23;20478;-80
2022/10/27 06:00:25;;;;;;;14.73;6.80;;;;;;;4.94;58.16;100399.31;6070732;23;20027;-80
2022/10/27 06:02:56;;;;;;;13.57;6.72;;;;;;;5.13;57.91;100419.53;6079401;23;20025;-81
2022/10/27 06:05:22;;;;;;;14.13;6.63;;;;;;;5.12;57.86;100424.66;6093709;23;20031;-80
2022/10/27 06:07:48;;;;;;;11.85;6.70;;;;;;;5.13;57.88;100409.22;6063971;23;20476;-80
2022/10/27 06:10:14;;;;;;;12.80;6.45;;;;;;;4.98;57.34;100421.75;6092406;23;20019;-79
2022/10/27 06:12:40;;;;;;;19.02;6.50;;;;;;;4.93;58.30;100429.38;6041175;23;20019;-81
2022/10/27 06:15:09;;;;;;;11.55;6.43;;;;;;;4.59;56.88;100420.81;6064096;23;20003;-81
2022/10/27 06:17:35;;;;;;;12.77;6.53;;;;;;;4.62;58.55;100425.16;6037135;23;20015;-79
2022/10/27 06:20:01;;;;;;;13.00;6.70;;;;;;;4.83;58.96;100436.00;6073816;23;20102;-80
2022/10/27 06:22:28;;;;;;;15.90;6.50;;;;;;;4.80;58.71;100392.09;6047519;23;20037;-80
2022/10/27 06:24:54;;;;;;;10.63;6.15;;;;;;;5.03;58.08;100396.94;6024503;23;20042;-81
2022/10/27 06:27:20;;;;;;;12.88;5.97;;;;;;;5.40;57.80;100431.34;6045407;23;20026;-80
2022/10/27 06:29:47;;;;;;;11.55;6.28;;;;;;;5.37;58.29;100402.88;6042628;23;20065;-79
2022/10/27 06:32:13;;;;;;;12.35;6.13;;;;;;;5.61;56.52;100445.56;6042618;23;20105;-79
2022/10/27 06:34:38;;;;;;;11.10;6.00;;;;;;;5.59;57.31;100444.66;6046222;23;20015;-79
2022/10/27 06:37:05;;;;;;;9.05;5.82;;;;;;;5.50;57.40;100423.78;6043651;23;20098;-80
2022/10/27 06:39:32;;;;;;;11.85;6.13;;;;;;;5.42;57.12;100423.63;6068151;23;20037;-80
2022/10/27 06:41:58;;;;;;;14.88;5.47;;;;;;;5.59;57.93;100442.06;6043514;23;20331;-80
2022/10/27 06:44:24;;;;;;;12.55;6.20;;;;;;;5.81;57.40;100432.19;6043967;23;20014;-80
2022/10/27 06:46:51;;;;;;;15.20;5.85;;;;;;;5.68;57.09;100437.06;6042846;23;20105;-81
2022/10/27 06:49:17;;;;;;;16.35;6.80;;;;;;;5.62;57.67;100418.91;6067403;23;20018;-79
2022/10/27 06:51:43;;;;;;;8.93;5.35;;;;;;;5.99;57.96;100411.88;6067767;23;20022;-79
2022/10/27 06:54:09;;;;;;;10.85;5.68;;;;;;;6.33;57.26;100416.84;6067079;23;20424;-80
2022/10/27 06:56:35;;;;;;;17.60;6.03;;;;;;;6.52;57.29;100405.09;6067254;23;20023;-79
2022/10/27 06:59:01;;;;;;;13.75;5.78;;;;;;;6.61;56.24;100427.69;6067640;23;20385;-79
2022/10/27 07:01:27;;;;;;;11.18;5.85;;;;;;;6.47;56.81;100446.41;6067400;23;20018;-80
2022/10/27 07:03:53;;;;;;;28.00;12.88;;;;;;;6.69;56.91;100435.59;6020657;23;20019;-79
2022/10/27 07:06:19;;;;;;;13.02;6.25;;;;;;;6.88;56.05;100440.22;6073211;23;20682;-79
2022/10/27 07:08:46;;;;;;;13.98;6.95;;;;;;;6.41;54.74;100419.56;6073962;23;20081;-80
2022/10/27 07:11:12;;;;;;;13.85;7.25;;;;;;;6.26;56.06;100408.13;6020803;23;20019;-80
2022/10/27 07:13:37;;;;;;;16.60;6.78;;;;;;;6.73;57.00;100443.41;6019595;23;20023;-80
2022/10/27 07:16:03;;;;;;;13.13;6.82;;;;;;;7.12;56.28;100448.34;6021381;23;20473;-80
2022/10/27 07:18:32;;;;;;;17.10;7.28;;;;;;;7.05;54.91;100409.44;6017370;23;20368;-79
2022/10/27 07:20:58;;;;;;;14.00;7.20;;;;;;;7.31;55.60;100446.91;6066801;23;20040;-80
2022/10/27 07:23:23;;;;;;;12.40;8.07;;;;;;;7.16;55.40;100440.66;6040929;23;20023;-79
2022/10/27 07:25:50;;;;;;;17.05;7.55;;;;;;;6.97;55.06;100433.44;6067382;23;20025;-79
2022/10/27 07:28:17;;;;;;;23.95;13.77;;;;;;;6.83;55.10;100435.81;6043265;23;20019;-80
2022/10/27 07:30:43;;;;;;;22.30;12.02;;;;;;;7.08;56.33;100416.38;6042893;23;20019;-81
2022/10/27 07:33:10;;;;;;;14.88;8.55;;;;;;;7.58;55.52;100446.44;6046245;23;20015;-81
2022/10/27 07:35:37;;;;;;;15.13;7.55;;;;;;;7.76;55.07;100448.41;6074843;23;20027;-80
2022/10/27 07:38:03;;;;;;;27.30;13.20;;;;;;;7.92;54.91;100452.06;6076351;23;20025;-80
2022/10/27 07:40:29;;;;;;;24.92;10.38;;;;;;;8.04;54.62;100416.75;6026411;23;20473;-79
2022/10/27 07:42:57;;;;;;;16.27;8.02;;;;;;;8.49;54.17;100444.06;6042204;23;20029;-80
2022/10/27 07:45:25;;;;;;;19.75;8.48;;;;;;;8.74;53.67;100455.53;6017096;23;20066;-80
2022/10/27 07:48:04;;;;;;;13.63;7.28;;;;;;;8.86;52.84;100443.53;5998388;23;20018;-79
2022/10/27 07:50:32;;;;;;;14.35;6.63;;;;;;;8.98;52.68;100466.13;6017259;23;20022;-80
2022/10/27 07:53:01;;;;;;;17.70;7.75;;;;;;;8.93;52.05;100455.72;6067824;23;20110;-82
2022/10/27 07:55:34;;;;;;;16.17;9.30;;;;;;;8.73;52.08;100411.44;6042223;23;20015;-79
2022/10/27 07:58:12;;;;;;;18.13;7.80;;;;;;;9.05;51.78;100454.94;6042784;23;20026;-80
2022/10/27 08:00:41;;;;;;;15.75;7.55;;;;;;;9.04;51.74;100454.06;6067351;23;20406;-80
2022/10/27 08:03:12;;;;;;;13.07;7.13;;;;;;;9.11;51.64;100467.09;6042310;23;20368;-78
2022/10/27 08:05:38;;;;;;;17.20;8.00;;;;;;;8.92;51.33;100417.66;6018838;23;20063;-80
2022/10/27 08:08:06;;;;;;;16.55;8.10;;;;;;;8.49;51.53;100349.84;6042673;23;20408;-81
2022/10/27 08:10:34;;;;;;;14.98;7.45;;;;;;;9.19;51.28;100453.31;6066882;23;20034;-78
2022/10/27 08:13:00;;;;;;;17.60;7.43;;;;;;;9.00;51.27;100425.50;6020163;23;20030;-82
2022/10/27 08:15:27;;;;;;;15.05;8.20;;;;;;;8.94;51.26;100425.44;6044370;23;20026;-81
2022/10/27 08:17:56;;;;;;;20.10;9.30;;;;;;;9.00;50.59;100461.84;6004012;23;20071;-82
2022/10/27 08:20:23;;;;;;;17.35;9.50;;;;;;;9.01;51.20;100461.84;6053246;23;20036;-80
2022/10/27 08:23:04;;;;;;;14.80;9.25;;;;;;;8.91;50.95;100421.09;6031366;23;20090;-77
2022/10/27 08:25:31;;;;;;;16.08;9.52;;;;;;;9.20;50.96;100443.78;6033605;23;20015;-81
2022/10/27 08:27:57;;;;;;;14.25;9.52;;;;;;;9.38;50.59;100442.19;6054285;23;20026;-80
2022/10/27 08:30:26;;;;;;;48.60;26.88;;;;;;;9.26;51.11;100397.09;6049100;23;20023;-79
2022/10/27 08:32:56;;;;;;;31.98;13.80;;;;;;;9.76;50.22;100441.53;6056796;23;20063;-81
2022/10/27 08:35:23;;;;;;;18.73;11.57;;;;;;;9.90;50.50;100431.19;6051709;23;20023;-83
2022/10/27 08:37:49;;;;;;;23.75;12.38;;;;;;;9.98;49.90;100437.28;6052401;23;20015;-79
2022/10/27 08:40:15;;;;;;;21.83;13.32;;;;;;;9.89;49.67;100401.72;6049811;23;20076;-80
2022/10/27 08:42:53;;;;;;;19.15;11.98;;;;;;;10.31;49.70;100447.78;6054078;23;20180;-84
2022/10/27 08:45:44;;;;;;;20.92;11.75;;;;;;;10.39;49.40;100446.09;6052241;23;20026;-80
2022/10/27 08:48:12;;;;;;;21.20;12.25;;;;;;;10.48;48.66;100440.06;6063495;23;20007;-82
2022/10/27 08:50:43;;;;;;;25.10;11.82;;;;;;;10.06;49.08;100411.28;6036563;23;20049;-80
2022/10/27 08:53:16;;;;;;;20.70;12.60;;;;;;;9.57;48.22;100368.69;6057866;23;20073;-83
2022/10/27 08:55:52;;;;;;;19.83;11.45;;;;;;;9.62;48.99;100434.53;6079217;23;20029;-79
2022/10/27 08:58:47;;;;;;;20.83;13.82;;;;;;;9.55;49.60;100450.97;6046003;23;20058;-82
2022/10/27 09:01:38;;;;;;;23.95;11.63;;;;;;;9.33;49.85;100435.25;6066342;23;20018;-81
2022/10/27 09:04:22;;;;;;;20.20;11.70;;;;;;;9.42;49.75;100462.13;6047883;23;20023;-82
2022/10/27 09:07:00;;;;;;;26.00;12.38;;;;;;;9.21;50.10;100432.53;6046861;23;20029;-80
2022/10/27 09:09:30;;;;;;;19.15;10.27;;;;;;;9.65;50.07;100463.13;6048771;23;20022;-80
2022/10/27 09:12:33;;;;;;;19.63;11.07;;;;;;;9.44;49.92;100403.25;6075704;23;20031;-81
2022/10/27 09:15:27;;;;;;;16.30;8.40;;;;;;;9.62;49.97;100455.31;6045358;23;20023;-84
2022/10/27 09:18:20;;;;;;;15.13;9.23;;;;;;;9.29;50.33;100430.88;6078989;23;20329;-82
2022/10/27 09:20:57;;;;;;;23.20;11.00;;;;;;;9.03;50.30;100412.53;6026121;23;20038;-79
2022/10/27 09:23:48;;;;;;;22.13;11.50;;;;;;;9.41;50.40;100440.47;6019660;23;20027;-81
2022/10/27 09:26:17;;;;;;;21.08;12.32;;;;;;;9.65;50.32;100447.53;6045401;23;20015;-82
2022/10/27 09:28:48;;;;;;;15.10;8.75;;;;;;;9.70;50.08;100432.00;6026364;23;20331;-81
2022/10/27 09:31:35;;;;;;;14.73;8.90;;;;;;;9.82;50.09;100438.09;6038205;23;20357;-81
2022/10/27 09:34:18;;;;;;;17.77;10.18;;;;;;;9.78;48.57;100440.66;6038090;23;20094;-80
2022/10/27 09:36:45;;;;;;;16.23;10.02;;;;;;;9.56;49.83;100421.53;6041842;23;20023;-79
2022/10/27 09:39:11;;;;;;;17.50;9.65;;;;;;;9.91;50.27;100444.19;6037998;23;20023;-79
2022/10/27 09:41:39;;;;;;;21.90;11.20;;;;;;;10.09;49.55;100447.72;6038572;23;20025;-79
2022/10/27 09:44:22;;;;;;;15.80;11.02;;;;;;;9.84;48.52;100464.97;6015160;23;20101;-78
2022/10/27 09:46:56;;;;;;;15.13;10.40;;;;;;;8.92;48.69;100411.56;6015932;23;20019;-80
2022/10/27 09:49:33;;;;;;;19.37;11.47;;;;;;;9.13;50.17;100447.22;6038367;23;20034;-81
2022/10/27 09:52:27;;;;;;;21.65;12.00;;;;;;;9.08;50.17;100469.69;6041854;23;20015;-78
2022/10/27 09:55:00;;;;;;;15.35;10.27;;;;;;;8.89;50.06;100418.47;6015774;23;20411;-78
2022/10/27 09:57:36;;;;;;;20.02;10.38;;;;;;;8.86;51.18;100417.59;5993780;23;20095;-81
2022/10/27 10:00:29;;;;;;;23.17;13.50;;;;;;;9.10;50.03;100467.97;6041877;23;20027;-79
2022/10/27 10:03:21;;;;;;;21.60;14.50;;;;;;;8.96;51.10;100455.72;6014290;23;20051;-81
2022/10/27 10:06:03;;;;;;;21.60;13.05;;;;;;;9.00;50.97;100444.50;6040781;23;20015;-80
2022/10/27 10:08:39;;;;;;;19.77;13.60;;;;;;;9.27;51.05;100473.28;6039978;23;20019;-79
2022/10/27 10:11:23;;;;;;;34.33;18.65;;;;;;;8.82;51.04;100444.38;6038860;23;20480;-81
2022/10/27 10:14:01;;;;;;;23.10;14.38;;;;;;;8.58;49.57;100456.25;6014624;23;20023;-81
2022/10/27 10:16:33;;;;;;;24.60;15.25;;;;;;;8.41;51.44;100450.84;6040664;23;20034;-80
2022/10/27 10:19:25;;;;;;;28.00;13.85;;;;;;;8.41;51.95;100488.06;6015359;23;20019;-79
2022/10/27 10:21:53;;;;;;;20.30;12.77;;;;;;;8.49;51.81;100482.97;6035657;23;20031;-77
2022/10/27 10:25:12;;;;;;;27.42;16.20;;;;;;;8.48;52.48;100482.94;6017890;23;20407;-79
2022/10/27 10:27:55;;;;;;;32.92;18.85;;;;;;;7.90;52.47;100411.41;6040777;23;20098;-79
2022/10/27 10:30:25;;;;;;;27.05;14.25;;;;;;;7.96;52.10;100412.34;6017275;23;20074;-79
2022/10/27 10:33:03;;;;;;;20.35;12.02;;;;;;;8.37;52.83;100455.16;6042631;23;20031;-79
2022/10/27 10:35:44;;;;;;;21.50;12.40;;;;;;;8.65;51.84;100486.59;6017288;23;20019;-78
2022/10/27 10:38:37;;;;;;;25.63;15.45;;;;;;;8.73;52.22;100482.34;6042516;23;20019;-80
2022/10/27 10:41:20;;;;;;;7.57;5.63;;;;;;;8.34;52.51;100460.31;6015699;23;20410;-81
2022/10/27 10:43:46;;;;;;;6.95;4.60;;;;;;;8.39;53.28;100479.38;6037395;23;20030;-79
2022/10/27 10:46:31;;;;;;;6.00;4.60;;;;;;;8.57;53.00;100473.56;6035616;23;20408;-78
2022/10/27 10:48:59;;;;;;;13.27;8.40;;;;;;;8.80;53.13;100490.19;6037032;23;20039;-79
2022/10/27 10:51:30;;;;;;;12.98;8.02;;;;;;;8.31;51.58;100444.72;6038399;23;20027;-80
2022/10/27 10:54:01;;;;;;;9.88;7.13;;;;;;;8.47;52.60;100499.34;6041261;23;20023;-80
2022/10/27 10:57:03;;;;;;;9.80;6.85;;;;;;;8.58;52.90;100497.75;6038109;23;20480;-81
2022/10/27 10:59:32;;;;;;;11.05;6.78;;;;;;;8.73;53.04;100497.91;6040510;23;20026;-80
2022/10/27 11:02:31;;;;;;;19.08;10.50;;;;;;;8.73;52.64;100484.94;6040593;23;20019;-78
2022/10/27 11:05:10;;;;;;;15.82;11.23;;;;;;;8.90;52.29;100492.03;6041427;23;20022;-81
2022/10/27 11:07:37;;;;;;;12.55;8.40;;;;;;;8.91;52.90;100478.19;6042025;23;20023;-80
2022/10/27 11:10:14;;;;;;;20.33;12.68;;;;;;;9.10;52.65;100505.16;6041183;23;20023;-80
2022/10/27 11:12:55;;;;;;;13.52;9.88;;;;;;;9.03;52.30;100499.06;6046570;23;20023;-80
2022/10/27 11:15:49;;;;;;;13.98;9.40;;;;;;;8.51;52.41;100419.03;6044946;23;20023;-79
2022/10/27 11:18:29;;;;;;;16.60;9.65;;;;;;;8.96;52.54;100515.44;5986630;23;20078;-79
2022/10/27 11:21:06;;;;;;;13.50;8.50;;;;;;;8.84;52.14;100481.59;6039021;23;20019;-80
2022/10/27 11:23:52;;;;;;;12.52;8.90;;;;;;;8.59;51.78;100513.38;5990873;23;20027;-80
2022/10/27 11:26:52;;;;;;;17.27;10.90;;;;;;;6.95;52.06;100290.25;5993615;23;20015;-80
2022/10/27 11:29:36;;;;;;;12.15;8.80;;;;;;;7.19;51.95;100367.34;5970429;23;20102;-82
2022/10/27 11:32:38;;;;;;;15.00;9.60;;;;;;;7.15;53.91;100369.03;6015940;23;20106;-79
2022/10/27 11:35:34;;;;;;;15.48;9.77;;;;;;;7.26;54.33;100342.41;6040270;23;20066;-80
2022/10/27 11:38:22;;;;;;;15.35;9.52;;;;;;;8.39;53.93;100510.50;6012428;23;20019;-80
2022/10/27 11:41:09;;;;;;;29.35;15.23;;;;;;;7.70;52.97;100427.59;6041022;23;20027;-80
2022/10/27 11:44:12;;;;;;;18.13;11.20;;;;;;;8.18;53.79;100510.25;5995077;23;20023;-81
2022/10/27 11:50:10;;;;;;;18.88;11.57;;;;;;;7.35;53.77;100391.75;6047522;23;20026;-81